Time;durP1;ratioP1;P1;durP2;ratioP2;P2;SDS_P1;SDS_P2;PMS_P1;PMS_P2;Temp;Humidity;BMP_temperature;BMP_pressure;BME280_temperature;BME280_humidity;BME280_pressure;Samples;Min_cycle;Max_cycle;Signal;HPM_P1;HPM_P2
2022/04/24 00:02:26;;;;;;;3.35;3.00;;;18.10;54.70;;;;;;5015639;28;20049;-73
2022/04/24 00:04:53;;;;;;;3.10;2.80;;;17.50;54.50;;;;;;5051914;28;20503;-72
2022/04/24 00:07:19;;;;;;;4.30;3.08;;;17.40;54.10;;;;;;5034661;28;20049;-73
2022/04/24 00:09:47;;;;;;;3.10;2.78;;;16.60;53.70;;;;;;5052983;28;20045;-73
2022/04/24 00:12:16;;;;;;;3.20;2.80;;;17.50;54.30;;;;;;5035493;28;20482;-73
2022/04/24 00:14:43;;;;;;;3.92;2.80;;;17.10;54.30;;;;;;5034967;28;20088;-73
2022/04/24 00:17:10;;;;;;;3.63;3.25;;;17.10;54.30;;;;;;5035167;28;20055;-73
2022/04/24 00:19:36;;;;;;;4.03;3.03;;;17.20;54.30;;;;;;5034174;28;20063;-73
2022/04/24 00:22:03;;;;;;;3.15;2.83;;;17.30;54.40;;;;;;5033487;28;20504;-73
2022/04/24 00:24:32;;;;;;;3.15;2.85;;;17.40;52.60;;;;;;5052193;28;20047;-73
2022/04/24 00:27:00;;;;;;;4.30;3.20;;;17.20;54.20;;;;;;5035109;28;20087;-72
2022/04/24 00:29:27;;;;;;;3.38;2.80;;;;;;;;;;5034775;28;20502;-72
2022/04/24 00:31:54;;;;;;;3.33;2.92;;;17.40;54.30;;;;;;5035069;28;20053;-73
2022/04/24 00:34:21;;;;;;;3.35;2.85;;;17.20;54.50;;;;;;5035089;28;20132;-73
2022/04/24 00:36:47;;;;;;;3.03;2.72;;;17.40;54.20;;;;;;5034401;28;20067;-72
2022/04/24 00:39:14;;;;;;;3.83;2.70;;;17.20;54.30;;;;;;5033268;28;20417;-73
2022/04/24 00:41:45;;;;;;;3.72;2.75;;;17.30;54.50;;;;;;5034455;28;20056;-73
2022/04/24 00:44:13;;;;;;;3.55;2.78;;;17.20;49.20;;;;;;5034490;28;20409;-73
2022/04/24 00:46:41;;;;;;;3.10;2.70;;;16.90;54.50;;;;;;5034740;28;20477;-73
2022/04/24 00:49:08;;;;;;;3.33;2.92;;;17.20;54.20;;;;;;5034661;28;20052;-73
2022/04/24 00:51:36;;;;;;;3.15;2.85;;;17.20;54.30;;;;;;5034440;28;20055;-73
2022/04/24 00:54:04;;;;;;;3.10;2.72;;;17.30;54.40;;;;;;5033714;28;20542;-73
2022/04/24 00:56:32;;;;;;;3.35;2.83;;;16.20;53.60;;;;;;5014321;28;20124;-73
2022/04/24 00:58:59;;;;;;;2.95;2.55;;;17.20;54.20;;;;;;5014496;28;20057;-73
2022/04/24 01:01:27;;;;;;;3.22;2.72;;;16.80;54.10;;;;;;5014760;28;20068;-72
2022/04/24 01:03:54;;;;;;;3.28;2.70;;;;;;;;;;5014318;28;20056;-73
2022/04/24 01:06:21;;;;;;;3.25;2.63;;;17.10;54.20;;;;;;5014520;28;20056;-73
2022/04/24 01:08:48;;;;;;;3.53;2.78;;;17.10;54.50;;;;;;5014331;28;20059;-73
2022/04/24 01:11:14;;;;;;;3.28;2.97;;;16.50;54.30;;;;;;5015524;28;20045;-73
2022/04/24 01:13:41;;;;;;;4.72;2.92;;;17.20;54.40;;;;;;5014562;28;20462;-73
2022/04/24 01:16:08;;;;;;;3.10;2.80;;;17.10;54.60;;;;;;5014294;28;20080;-73
2022/04/24 01:18:36;;;;;;;3.55;2.97;;;17.10;48.70;;;;;;5014493;28;20049;-73
2022/04/24 01:21:08;;;;;;;3.13;2.70;;;17.10;54.70;;;;;;5014190;28;20075;-72
2022/04/24 01:23:35;;;;;;;3.20;2.72;;;17.50;55.00;;;;;;5015485;28;20414;-73
2022/04/24 01:26:02;;;;;;;3.40;2.55;;;17.20;54.40;;;;;;5014064;28;20049;-73
2022/04/24 01:28:28;;;;;;;3.30;2.80;;;16.90;54.50;;;;;;5014476;28;20064;-73
2022/04/24 01:30:55;;;;;;;3.63;2.70;;;16.90;54.60;;;;;;5013759;28;20064;-72
2022/04/24 01:33:22;;;;;;;3.60;2.90;;;17.00;54.30;;;;;;5032171;28;20071;-73
2022/04/24 01:35:48;;;;;;;3.40;2.70;;;16.60;54.00;;;;;;5014326;28;20053;-72
2022/04/24 01:38:16;;;;;;;3.05;2.75;;;17.20;54.70;;;;;;5033518;28;20412;-72
2022/04/24 01:40:43;;;;;;;3.58;3.03;;;17.10;54.60;;;;;;5033565;28;20049;-73
2022/04/24 01:43:10;;;;;;;3.22;2.80;;;17.10;54.60;;;;;;5034131;28;20053;-73
2022/04/24 01:45:36;;;;;;;3.05;2.75;;;17.10;54.30;;;;;;5033678;28;20114;-73
2022/04/24 01:48:03;;;;;;;3.70;2.85;;;16.90;54.30;;;;;;5033955;28;20136;-72
2022/04/24 01:50:30;;;;;;;2.90;2.60;;;16.90;54.20;;;;;;5033207;28;20049;-73
2022/04/24 01:52:56;;;;;;;3.45;2.78;;;17.10;54.40;;;;;;5027167;28;20065;-73
2022/04/24 01:55:24;;;;;;;3.25;2.88;;;17.10;54.60;;;;;;5014230;28;20417;-72
2022/04/24 01:57:51;;;;;;;3.03;2.72;;;;;;;;;;5013705;28;20069;-72
2022/04/24 02:00:18;;;;;;;3.25;2.95;;;16.90;54.40;;;;;;5014001;28;20057;-73
2022/04/24 02:02:46;;;;;;;3.33;2.80;;;16.30;54.20;;;;;;5014135;28;20049;-73
2022/04/24 02:05:13;;;;;;;3.38;2.53;;;16.30;54.20;;;;;;5013599;28;20077;-73
2022/04/24 02:07:39;;;;;;;3.33;3.00;;;17.00;54.90;;;;;;5014170;28;20508;-72
2022/04/24 02:10:07;;;;;;;3.33;2.70;;;16.80;54.60;;;;;;5023618;28;20158;-73
2022/04/24 02:12:39;;;;;;;3.10;2.70;;;16.80;54.50;;;;;;5033715;28;20053;-72
2022/04/24 02:15:07;;;;;;;3.70;3.00;;;17.10;54.50;;;;;;5033400;28;20056;-73
2022/04/24 02:17:34;;;;;;;4.35;2.72;;;17.00;54.70;;;;;;5051411;28;20409;-73
2022/04/24 02:20:00;;;;;;;3.13;2.78;;;17.10;54.80;;;;;;5050908;28;20486;-73
2022/04/24 02:22:32;;;;;;;3.70;2.78;;;16.20;49.40;;;;;;5033527;28;20061;-73
2022/04/24 02:24:58;;;;;;;3.47;2.67;;;16.70;51.30;;;;;;5033192;28;20102;-73
2022/04/24 02:27:25;;;;;;;3.13;2.70;;;16.70;54.30;;;;;;4994240;28;20056;-73
2022/04/24 02:29:53;;;;;;;3.00;2.53;;;17.00;54.70;;;;;;5011358;28;20056;-73
2022/04/24 02:32:20;;;;;;;3.25;2.95;;;16.70;54.70;;;;;;4994144;28;20088;-73
2022/04/24 02:34:47;;;;;;;3.42;2.80;;;;;;;;;;4994196;28;20068;-73
2022/04/24 02:37:14;;;;;;;3.35;2.90;;;16.00;54.00;;;;;;4994099;28;20642;-73
2022/04/24 02:39:41;;;;;;;3.65;2.92;;;16.80;54.70;;;;;;4993748;28;20057;-73
2022/04/24 02:42:08;;;;;;;3.70;2.88;;;16.80;54.60;;;;;;5005454;28;20494;-73
2022/04/24 02:44:35;;;;;;;3.20;2.88;;;;;;;;;;5017092;28;20408;-72
2022/04/24 02:47:04;;;;;;;3.50;2.78;;;16.90;54.40;;;;;;5017256;28;20053;-72
2022/04/24 02:49:30;;;;;;;3.75;2.88;;;17.50;55.10;;;;;;5016834;28;20053;-73
2022/04/24 02:51:57;;;;;;;3.30;2.95;;;16.30;52.50;;;;;;5017169;28;20064;-72
2022/04/24 02:54:24;;;;;;;3.53;2.80;;;16.80;54.10;;;;;;5016817;28;20065;-73
2022/04/24 02:56:50;;;;;;;3.92;2.85;;;16.50;54.40;;;;;;5016871;28;20049;-73
2022/04/24 02:59:17;;;;;;;2.95;2.65;;;16.80;54.70;;;;;;5017981;28;20063;-72
2022/04/24 03:01:44;;;;;;;3.47;2.80;;;16.80;54.70;;;;;;5034422;28;20156;-73
2022/04/24 03:04:12;;;;;;;3.40;2.78;;;16.20;54.20;;;;;;5016507;28;20064;-72
2022/04/24 03:06:39;;;;;;;3.25;2.90;;;16.20;54.40;;;;;;5016676;28;20061;-73
2022/04/24 03:09:06;;;;;;;3.30;2.80;;;;;;;;;;5016468;28;20405;-72
2022/04/24 03:11:32;;;;;;;3.00;2.70;;;16.40;54.50;;;;;;5016351;28;20049;-73
2022/04/24 03:13:59;;;;;;;4.90;3.03;;;;;;;;;;5017594;28;20053;-72
2022/04/24 03:16:26;;;;;;;3.85;3.00;;;16.20;54.40;;;;;;4996767;28;20066;-73
2022/04/24 03:18:53;;;;;;;3.13;2.60;;;16.10;54.40;;;;;;4996512;28;20052;-73
2022/04/24 03:21:21;;;;;;;4.65;2.97;;;16.60;54.60;;;;;;4996606;28;20050;-73
2022/04/24 03:23:48;;;;;;;3.20;2.90;;;16.50;54.40;;;;;;4996949;28;20058;-72
2022/04/24 03:26:14;;;;;;;3.35;2.92;;;16.50;54.40;;;;;;4996526;28;20054;-73
2022/04/24 03:28:42;;;;;;;3.50;3.20;;;16.50;54.50;;;;;;4996999;28;20076;-73
2022/04/24 03:31:09;;;;;;;3.22;2.60;;;17.50;55.50;;;;;;5002638;28;20057;-73
2022/04/24 03:33:36;;;;;;;4.03;2.90;;;16.50;54.60;;;;;;5015957;28;20145;-72
2022/04/24 03:36:03;;;;;;;3.33;2.90;;;16.00;54.20;;;;;;5016105;28;20414;-73
2022/04/24 03:38:31;;;;;;;4.20;2.97;;;16.20;54.70;;;;;;5015936;28;20053;-73
2022/04/24 03:40:58;;;;;;;3.55;2.80;;;;;;;;;;5015927;28;20057;-73
2022/04/24 03:43:24;;;;;;;3.22;2.92;;;16.60;55.00;;;;;;5016115;28;20053;-73
2022/04/24 03:45:51;;;;;;;2.80;2.50;;;16.40;50.80;;;;;;5015946;28;20068;-73
2022/04/24 03:48:18;;;;;;;3.00;2.70;;;16.10;54.60;;;;;;5034590;28;20603;-73
2022/04/24 03:50:44;;;;;;;4.07;2.78;;;16.10;50.80;;;;;;5015929;28;20053;-73
2022/04/24 03:53:12;;;;;;;3.60;3.03;;;16.60;54.90;;;;;;5015483;28;20422;-73
2022/04/24 03:55:40;;;;;;;2.85;2.55;;;16.50;54.90;;;;;;5015771;28;20564;-73
2022/04/24 03:58:07;;;;;;;3.35;2.90;;;16.30;54.70;;;;;;5015690;28;20053;-73
2022/04/24 04:00:34;;;;;;;3.83;2.88;;;16.10;54.70;;;;;;5015727;28;20064;-73
2022/04/24 04:03:00;;;;;;;3.13;2.53;;;16.20;54.60;;;;;;5015491;28;20136;-72
2022/04/24 04:05:27;;;;;;;3.10;2.67;;;16.50;54.50;;;;;;5016826;28;20071;-73
2022/04/24 04:07:54;;;;;;;3.15;2.70;;;16.40;54.70;;;;;;5015717;28;20056;-73
2022/04/24 04:10:21;;;;;;;3.58;3.00;;;16.50;54.60;;;;;;5015375;28;20056;-73
2022/04/24 04:12:50;;;;;;;3.72;3.00;;;16.40;54.40;;;;;;5015642;28;20559;-73
2022/04/24 04:15:16;;;;;;;3.47;2.80;;;16.40;54.50;;;;;;5015234;28;20060;-73
2022/04/24 04:17:44;;;;;;;3.60;2.95;;;16.30;49.30;;;;;;5014942;28;20058;-73
2022/04/24 04:20:12;;;;;;;3.03;2.72;;;16.40;54.90;;;;;;5015230;28;20498;-73
2022/04/24 04:22:48;;;;;;;4.28;2.78;;;16.40;54.90;;;;;;5016502;28;20174;-73
2022/04/24 04:25:14;;;;;;;2.78;2.45;;;16.50;54.70;;;;;;5015350;28;20506;-73
2022/04/24 04:27:41;;;;;;;2.92;2.42;;;16.10;54.50;;;;;;5015167;28;20051;-73
2022/04/24 04:30:10;;;;;;;3.25;2.75;;;15.90;54.60;;;;;;5014991;28;20089;-73
2022/04/24 04:32:37;;;;;;;3.30;3.00;;;16.40;54.90;;;;;;5032638;28;20494;-72
2022/04/24 04:35:05;;;;;;;3.25;2.80;;;16.50;55.00;;;;;;5014883;28;20055;-73
2022/04/24 04:37:32;;;;;;;2.90;2.60;;;16.60;54.80;;;;;;5015149;28;20383;-73
2022/04/24 04:39:59;;;;;;;3.47;2.72;;;16.30;54.80;;;;;;5014907;28;20052;-73
2022/04/24 04:42:25;;;;;;;3.00;2.70;;;15.90;54.40;;;;;;5014914;28;20449;-72
2022/04/24 04:44:53;;;;;;;3.00;2.60;;;;;;;;;;5014816;28;20430;-73
2022/04/24 04:47:21;;;;;;;3.45;2.80;;;16.20;54.50;;;;;;5015005;28;20518;-73
2022/04/24 04:49:48;;;;;;;3.80;2.60;;;;;;;;;;5014650;28;20494;-73
2022/04/24 04:52:15;;;;;;;3.53;2.70;;;16.40;54.90;;;;;;5015958;28;20061;-73
2022/04/24 04:54:41;;;;;;;3.97;2.92;;;16.30;54.90;;;;;;5014888;28;20061;-73
2022/04/24 04:57:08;;;;;;;3.13;2.67;;;;;;;;;;5014597;28;20049;-73
2022/04/24 04:59:35;;;;;;;3.40;2.80;;;16.10;54.50;;;;;;5014241;28;20049;-73
2022/04/24 05:02:02;;;;;;;3.53;2.90;;;16.00;54.40;;;;;;5014513;28;20049;-73
2022/04/24 05:04:30;;;;;;;3.15;2.58;;;16.50;48.70;;;;;;5014442;28;20532;-73
2022/04/24 05:06:56;;;;;;;3.60;2.50;;;16.30;53.50;;;;;;5014471;28;20119;-73
2022/04/24 05:09:24;;;;;;;2.90;2.60;;;16.30;54.90;;;;;;5015870;28;20116;-73
2022/04/24 05:11:51;;;;;;;3.45;2.55;;;16.30;52.60;;;;;;5014260;28;20059;-73
2022/04/24 05:14:17;;;;;;;2.97;2.45;;;16.20;54.60;;;;;;5014311;28;20128;-73
2022/04/24 05:16:44;;;;;;;2.80;2.40;;;16.20;54.60;;;;;;5014366;28;20057;-72
2022/04/24 05:19:11;;;;;;;3.55;2.30;;;16.50;54.90;;;;;;5014226;28;20440;-73
2022/04/24 05:21:39;;;;;;;2.63;2.40;;;15.80;54.50;;;;;;5014023;28;20053;-73
2022/04/24 05:24:07;;;;;;;3.83;2.92;;;16.30;54.80;;;;;;5014873;28;20063;-73
2022/04/24 05:26:33;;;;;;;2.58;2.28;;;16.30;54.90;;;;;;5034156;28;20132;-73
2022/04/24 05:29:00;;;;;;;3.22;2.60;;;16.40;54.90;;;;;;5034079;28;20133;-73
2022/04/24 05:31:27;;;;;;;3.05;2.53;;;15.50;54.30;;;;;;5033648;28;20060;-73
2022/04/24 05:33:55;;;;;;;3.38;2.65;;;15.80;54.40;;;;;;5033511;28;20134;-73
2022/04/24 05:36:21;;;;;;;2.60;2.40;;;16.40;54.70;;;;;;5034014;28;20409;-73
2022/04/24 05:38:49;;;;;;;2.65;2.30;;;16.50;55.10;;;;;;5033600;28;20057;-73
2022/04/24 05:41:16;;;;;;;3.63;2.53;;;15.90;54.40;;;;;;5026070;28;20064;-73
2022/04/24 05:43:43;;;;;;;3.63;2.78;;;;;;;;;;5013981;28;20057;-72
2022/04/24 05:46:10;;;;;;;2.72;2.45;;;16.50;54.70;;;;;;5014035;28;20417;-73
2022/04/24 05:48:37;;;;;;;3.50;2.53;;;16.30;54.60;;;;;;5013958;28;20053;-73
2022/04/24 05:51:03;;;;;;;3.00;2.35;;;15.70;54.30;;;;;;5021433;28;20095;-73
2022/04/24 05:53:30;;;;;;;2.75;2.45;;;16.60;54.70;;;;;;5014365;28;20049;-73
2022/04/24 05:55:58;;;;;;;3.28;2.47;;;16.40;54.60;;;;;;5031444;28;20561;-73
2022/04/24 05:58:25;;;;;;;3.05;2.60;;;;;;;;;;5014934;28;20064;-72
2022/04/24 06:00:52;;;;;;;3.17;2.50;;;16.40;54.90;;;;;;5013817;28;20131;-73
2022/04/24 06:03:19;;;;;;;3.00;2.70;;;16.70;54.60;;;;;;5031555;28;20085;-73
2022/04/24 06:05:47;;;;;;;2.60;2.40;;;;;;;;;;5013857;28;20060;-72
2022/04/24 06:08:13;;;;;;;2.33;2.13;;;16.50;50.80;;;;;;5014049;28;20096;-72
2022/04/24 06:10:41;;;;;;;4.00;2.50;;;17.30;55.30;;;;;;5013608;28;20057;-73
2022/04/24 06:13:09;;;;;;;2.80;2.50;;;16.80;54.70;;;;;;5032619;28;20387;-72
2022/04/24 06:15:38;;;;;;;3.50;2.70;;;16.70;54.60;;;;;;5033590;28;20135;-73
2022/04/24 06:18:05;;;;;;;3.33;2.25;;;16.70;54.70;;;;;;5035456;28;20059;-73
2022/04/24 06:20:32;;;;;;;5.00;2.75;;;16.00;54.50;;;;;;5037165;28;20059;-73
2022/04/24 06:22:59;;;;;;;3.05;2.40;;;17.10;54.70;;;;;;5037180;28;20059;-73
2022/04/24 06:25:27;;;;;;;2.80;2.25;;;16.50;54.60;;;;;;5037351;28;20104;-72
2022/04/24 06:27:54;;;;;;;3.42;2.30;;;16.50;54.60;;;;;;5037324;28;20131;-73
2022/04/24 06:30:23;;;;;;;2.88;2.30;;;16.60;50.50;;;;;;5035180;28;20057;-73
2022/04/24 06:32:50;;;;;;;2.78;2.30;;;16.80;54.50;;;;;;5037246;28;20135;-73
2022/04/24 06:35:17;;;;;;;2.70;2.20;;;17.10;54.70;;;;;;5037058;28;20063;-73
2022/04/24 06:37:45;;;;;;;3.65;2.33;;;16.80;54.70;;;;;;5037158;28;20059;-72
2022/04/24 06:40:12;;;;;;;2.47;2.25;;;16.10;49.70;;;;;;5036569;28;20049;-73
2022/04/24 06:42:48;;;;;;;2.53;2.10;;;16.90;54.70;;;;;;5037088;28;20067;-73
2022/04/24 06:45:14;;;;;;;2.22;1.90;;;16.90;54.70;;;;;;5036475;28;20065;-72
2022/04/24 06:47:42;;;;;;;3.67;2.25;;;16.30;54.40;;;;;;5025774;28;20148;-73
2022/04/24 06:50:10;;;;;;;2.22;1.90;;;17.20;54.40;;;;;;5015732;28;20068;-73
2022/04/24 06:52:36;;;;;;;2.95;2.50;;;17.00;54.50;;;;;;5017187;28;20049;-74
2022/04/24 06:55:05;;;;;;;2.83;2.30;;;16.90;52.50;;;;;;5034703;28;20504;-73
2022/04/24 06:57:32;;;;;;;2.25;2.00;;;17.20;54.00;;;;;;5017023;28;20060;-73
2022/04/24 06:59:59;;;;;;;2.65;2.00;;;17.00;54.00;;;;;;5016353;28;20069;-73
2022/04/24 07:02:26;;;;;;;2.83;2.00;;;16.40;53.90;;;;;;5016918;28;20483;-73
2022/04/24 07:04:54;;;;;;;3.22;1.90;;;17.10;53.90;;;;;;5017800;28;20045;-73
2022/04/24 07:07:21;;;;;;;2.85;2.10;;;17.50;54.30;;;;;;5016871;28;20064;-73
2022/04/24 07:09:48;;;;;;;3.95;1.80;;;;;;;;;;5012962;28;20416;-73
2022/04/24 07:12:14;;;;;;;2.50;1.98;;;18.00;54.30;;;;;;5016295;28;20478;-73
2022/04/24 07:14:41;;;;;;;2.90;2.03;;;17.60;53.70;;;;;;5016293;28;20053;-73
2022/04/24 07:17:08;;;;;;;4.32;2.03;;;17.80;53.70;;;;;;5013680;28;20053;-73
2022/04/24 07:19:34;;;;;;;2.97;2.00;;;17.30;53.20;;;;;;5016302;28;20050;-73
2022/04/24 07:22:02;;;;;;;3.60;1.80;;;18.00;53.50;;;;;;5036163;28;20394;-72
2022/04/24 07:24:29;;;;;;;3.20;2.00;;;18.00;53.40;;;;;;5024944;28;20046;-73
2022/04/24 07:26:56;;;;;;;3.45;1.98;;;18.20;53.50;;;;;;5019849;28;20052;-72
2022/04/24 07:29:23;;;;;;;2.85;1.90;;;18.30;52.90;;;;;;5024997;28;20056;-71
2022/04/24 07:31:50;;;;;;;3.85;1.90;;;18.60;53.10;;;;;;5036090;28;20052;-72
2022/04/24 07:34:17;;;;;;;3.38;1.77;;;18.60;52.80;;;;;;5028719;28;20085;-72
2022/04/24 07:36:44;;;;;;;4.95;1.85;;;18.40;52.90;;;;;;5033980;28;20418;-71
2022/04/24 07:39:14;;;;;;;3.70;1.67;;;17.80;51.10;;;;;;5032358;28;20053;-72
2022/04/24 07:41:40;;;;;;;3.53;1.67;;;18.60;52.70;;;;;;5016013;28;20049;-72
2022/04/24 07:44:08;;;;;;;3.53;1.92;;;19.00;53.00;;;;;;5015542;28;20517;-72
2022/04/24 07:46:34;;;;;;;3.15;1.70;;;18.80;49.90;;;;;;5015454;28;20051;-72
2022/04/24 07:49:01;;;;;;;2.70;1.60;;;19.10;52.80;;;;;;5016004;28;20064;-72
2022/04/24 07:51:28;;;;;;;4.68;2.00;;;18.50;52.20;;;;;;5031929;28;20050;-72
2022/04/24 07:53:55;;;;;;;5.13;1.90;;;19.70;51.70;;;;;;5013443;28;20046;-73
2022/04/24 07:56:23;;;;;;;3.75;1.80;;;19.40;52.10;;;;;;5012673;28;20064;-73
2022/04/24 07:58:49;;;;;;;3.08;1.90;;;19.70;52.60;;;;;;5012580;28;20061;-73
2022/04/24 08:01:17;;;;;;;3.60;1.70;;;19.10;52.10;;;;;;5015399;28;20061;-73
2022/04/24 08:03:44;;;;;;;4.30;1.90;;;19.10;52.20;;;;;;5015712;28;20050;-73
2022/04/24 08:06:11;;;;;;;3.88;1.58;;;18.50;51.80;;;;;;5015797;28;20140;-72
2022/04/24 08:08:37;;;;;;;2.53;1.65;;;18.60;51.30;;;;;;5015709;28;20052;-73
2022/04/24 08:11:04;;;;;;;2.55;1.50;;;19.20;52.00;;;;;;5015578;28;20398;-73
2022/04/24 08:13:32;;;;;;;3.47;1.75;;;19.10;52.00;;;;;;5015263;28;20059;-72
2022/04/24 08:16:01;;;;;;;2.28;1.60;;;19.30;51.60;;;;;;5015308;28;20064;-72
2022/04/24 08:18:28;;;;;;;3.83;1.70;;;19.50;51.70;;;;;;5033107;28;20054;-72
2022/04/24 08:20:55;;;;;;;2.20;1.52;;;19.10;51.60;;;;;;5015349;28;20061;-72
2022/04/24 08:23:23;;;;;;;2.33;1.58;;;;;;;;;;5015533;28;20509;-72
2022/04/24 08:25:50;;;;;;;3.25;1.73;;;20.00;52.10;;;;;;5014988;28;20576;-72
2022/04/24 08:28:16;;;;;;;2.55;1.38;;;19.50;52.50;;;;;;5032197;28;20056;-71
2022/04/24 08:30:45;;;;;;;3.15;1.50;;;19.60;52.10;;;;;;5014832;28;20053;-72
2022/04/24 08:33:12;;;;;;;2.20;1.48;;;19.70;51.40;;;;;;5031789;28;20560;-72
2022/04/24 08:35:39;;;;;;;2.50;1.50;;;19.50;51.30;;;;;;5032294;28;20045;-72
2022/04/24 08:38:06;;;;;;;3.25;1.90;;;19.60;46.50;;;;;;5032103;28;20773;-72
2022/04/24 08:40:32;;;;;;;2.60;1.58;;;19.20;51.00;;;;;;5012340;28;20052;-72
2022/04/24 08:43:00;;;;;;;2.25;1.50;;;20.50;51.60;;;;;;5011760;28;20055;-72
2022/04/24 08:45:27;;;;;;;2.58;1.55;;;20.40;52.40;;;;;;5013190;28;20088;-72
2022/04/24 08:47:56;;;;;;;2.28;1.40;;;19.70;45.70;;;;;;5013462;28;20160;-71
2022/04/24 08:50:22;;;;;;;3.28;1.50;;;19.90;51.30;;;;;;5011079;28;20041;-70
2022/04/24 08:52:49;;;;;;;3.25;1.77;;;19.90;51.40;;;;;;5015001;28;20068;-70
2022/04/24 08:55:16;;;;;;;2.08;1.67;;;19.70;51.20;;;;;;5014320;28;20053;-70
2022/04/24 08:57:43;;;;;;;2.55;1.73;;;20.20;51.10;;;;;;5014785;28;20057;-70
2022/04/24 09:00:11;;;;;;;2.22;1.70;;;19.60;50.70;;;;;;5014366;28;20049;-69
2022/04/24 09:02:38;;;;;;;2.45;1.73;;;19.90;51.30;;;;;;5031998;28;20052;-69
2022/04/24 09:05:07;;;;;;;2.75;1.70;;;19.90;51.00;;;;;;5014652;28;20569;-72
2022/04/24 09:07:34;;;;;;;4.25;1.63;;;19.70;50.70;;;;;;5014740;28;20065;-71
2022/04/24 09:10:03;;;;;;;4.05;1.90;;;19.70;46.20;;;;;;5013168;28;20053;-71
2022/04/24 09:12:30;;;;;;;3.78;1.75;;;19.80;51.30;;;;;;5014649;28;20046;-71
2022/04/24 09:14:58;;;;;;;4.85;1.90;;;20.00;51.70;;;;;;5032075;28;20056;-71
2022/04/24 09:17:25;;;;;;;3.28;1.80;;;19.90;51.00;;;;;;5032172;28;20515;-70
2022/04/24 09:19:52;;;;;;;2.80;1.63;;;19.80;51.10;;;;;;5014065;28;20049;-71
2022/04/24 09:22:22;;;;;;;4.50;1.55;;;19.70;46.30;;;;;;5014343;28;20058;-70
2022/04/24 09:24:52;;;;;;;6.15;1.67;;;19.80;51.10;;;;;;5014545;28;20140;-71
2022/04/24 09:27:23;;;;;;;3.47;2.03;;;20.60;51.70;;;;;;5013885;28;20057;-70
2022/04/24 09:29:51;;;;;;;3.33;1.85;;;19.10;50.30;;;;;;5031806;28;20049;-71
2022/04/24 09:32:18;;;;;;;5.30;1.85;;;20.30;52.10;;;;;;4997932;28;20049;-71
2022/04/24 09:34:45;;;;;;;4.13;1.60;;;19.90;51.40;;;;;;5014402;28;20057;-70
2022/04/24 09:37:12;;;;;;;3.08;1.58;;;19.70;46.30;;;;;;5014099;28;20417;-70
2022/04/24 09:39:40;;;;;;;4.32;1.70;;;19.40;45.60;;;;;;5031610;28;20050;-71
2022/04/24 09:42:07;;;;;;;4.85;1.70;;;19.90;51.20;;;;;;5031575;28;20417;-71
2022/04/24 09:44:41;;;;;;;3.03;1.60;;;19.80;50.80;;;;;;5014081;28;20092;-71
2022/04/24 09:47:08;;;;;;;3.33;1.63;;;19.10;50.90;;;;;;5011948;28;20057;-71
2022/04/24 09:49:38;;;;;;;4.28;1.80;;;19.60;50.90;;;;;;5014049;28;20113;-71
2022/04/24 09:52:11;;;;;;;3.53;1.50;;;19.60;50.80;;;;;;5016501;28;20060;-71
2022/04/24 09:54:41;;;;;;;3.28;1.73;;;20.40;51.20;;;;;;5018203;28;20053;-71
2022/04/24 09:57:08;;;;;;;2.80;1.77;;;19.60;46.20;;;;;;5018060;28;20061;-70
2022/04/24 09:59:35;;;;;;;3.42;1.70;;;19.60;51.80;;;;;;5017313;28;20140;-71
2022/04/24 10:02:03;;;;;;;2.83;1.85;;;19.90;50.90;;;;;;5018176;28;20060;-71
2022/04/24 10:04:29;;;;;;;4.43;1.80;;;19.40;51.10;;;;;;5035346;28;20464;-71
2022/04/24 10:06:57;;;;;;;2.85;1.90;;;20.40;51.30;;;;;;5017836;28;20059;-71
2022/04/24 10:09:26;;;;;;;2.92;1.80;;;19.10;50.60;;;;;;5017818;28;20137;-71
2022/04/24 10:11:54;;;;;;;2.78;1.65;;;18.80;50.70;;;;;;5017853;28;20498;-72
2022/04/24 10:14:21;;;;;;;2.60;1.98;;;19.60;46.30;;;;;;5035477;28;20056;-71
2022/04/24 10:17:00;;;;;;;4.30;1.70;;;19.50;51.30;;;;;;5034936;28;20049;-71
2022/04/24 10:19:36;;;;;;;3.33;1.80;;;20.20;51.50;;;;;;5000829;28;20045;-72
2022/04/24 10:22:05;;;;;;;2.90;1.73;;;19.30;51.20;;;;;;5035312;28;20050;-71
2022/04/24 10:24:39;;;;;;;3.97;1.83;;;20.30;51.40;;;;;;5017621;28;20061;-72
2022/04/24 10:27:07;;;;;;;3.53;1.95;;;19.60;51.10;;;;;;5017326;28;20053;-72
2022/04/24 10:29:34;;;;;;;3.22;1.83;;;19.50;50.80;;;;;;5017315;28;20486;-71
2022/04/24 10:32:01;;;;;;;2.72;1.85;;;19.60;46.30;;;;;;5017330;28;20136;-72
2022/04/24 10:34:38;;;;;;;2.17;1.63;;;19.90;51.30;;;;;;5017565;28;20084;-72
2022/04/24 10:37:05;;;;;;;3.97;1.88;;;19.10;50.50;;;;;;5035075;28;20341;-72
2022/04/24 10:39:33;;;;;;;3.85;1.63;;;19.70;51.70;;;;;;5017205;28;20544;-72
2022/04/24 10:42:06;;;;;;;4.20;1.92;;;19.30;51.00;;;;;;5017383;28;20099;-72
2022/04/24 10:44:34;;;;;;;3.45;1.70;;;19.70;46.00;;;;;;5017272;28;20060;-72
2022/04/24 10:47:11;;;;;;;3.33;1.60;;;19.80;51.10;;;;;;5017241;28;20049;-72
2022/04/24 10:49:38;;;;;;;3.53;1.67;;;19.40;50.10;;;;;;5034023;28;20053;-72
2022/04/24 10:52:05;;;;;;;2.95;1.70;;;18.80;50.70;;;;;;5017146;28;20140;-72
2022/04/24 10:54:34;;;;;;;3.33;1.67;;;18.90;50.50;;;;;;5034667;28;20085;-71
2022/04/24 10:57:01;;;;;;;2.58;1.60;;;19.70;51.30;;;;;;5017168;28;20053;-72
2022/04/24 10:59:28;;;;;;;2.50;1.60;;;19.60;51.30;;;;;;5034347;28;20060;-71
2022/04/24 11:01:57;;;;;;;2.80;1.90;;;19.50;51.70;;;;;;5017002;28;20057;-72
2022/04/24 11:04:25;;;;;;;2.70;1.60;;;19.40;51.40;;;;;;5033483;28;20057;-71
2022/04/24 11:06:55;;;;;;;3.10;1.70;;;19.50;51.20;;;;;;5034681;28;20049;-71
2022/04/24 11:09:21;;;;;;;1.80;1.45;;;19.60;46.10;;;;;;5034343;28;20056;-72
2022/04/24 11:11:48;;;;;;;2.65;1.67;;;19.80;50.70;;;;;;5016600;28;20057;-72
2022/04/24 11:14:19;;;;;;;2.17;1.55;;;19.60;52.10;;;;;;5034005;28;20049;-72
2022/04/24 11:16:49;;;;;;;2.55;1.42;;;19.50;52.10;;;;;;5016653;28;20421;-72
2022/04/24 11:19:23;;;;;;;5.20;1.80;;;19.80;50.80;;;;;;5033821;28;20042;-72
2022/04/24 11:21:55;;;;;;;2.17;1.60;;;20.10;50.90;;;;;;5016650;28;20061;-72
2022/04/24 11:24:22;;;;;;;2.30;1.50;;;19.50;46.00;;;;;;5016503;28;20061;-72
2022/04/24 11:26:48;;;;;;;3.15;1.52;;;19.50;46.10;;;;;;5016468;28;20111;-72
2022/04/24 11:29:15;;;;;;;3.40;1.67;;;19.50;51.40;;;;;;5016527;28;20072;-72
2022/04/24 11:31:48;;;;;;;2.65;1.60;;;19.40;50.90;;;;;;5016159;28;20399;-72
2022/04/24 11:34:17;;;;;;;2.97;1.52;;;19.60;50.80;;;;;;5000106;28;20053;-72
2022/04/24 11:36:45;;;;;;;6.88;1.80;;;19.20;50.50;;;;;;5015736;28;20464;-72
2022/04/24 11:39:12;;;;;;;2.53;1.67;;;19.00;50.20;;;;;;5016097;28;20061;-72
2022/04/24 11:41:39;;;;;;;2.17;1.60;;;19.70;50.60;;;;;;5016109;28;20059;-72
2022/04/24 11:50:13;;;;;;;2.47;1.33;;;19.40;51.10;;;;;;5016215;28;20045;-72
2022/04/24 11:52:25;;;;;;;2.30;1.60;;;19.50;45.90;;;;;;5023945;28;20052;-71
2022/04/24 11:54:52;;;;;;;3.67;1.65;;;19.30;50.90;;;;;;5047430;28;20437;-70
2022/04/24 11:57:19;;;;;;;4.38;1.75;;;19.40;45.80;;;;;;5033679;28;20458;-71
2022/04/24 11:59:51;;;;;;;3.60;1.85;;;19.40;45.80;;;;;;5033263;28;20071;-71
2022/04/24 12:02:18;;;;;;;2.22;1.50;;;19.20;51.10;;;;;;5015833;28;20057;-71
2022/04/24 12:04:45;;;;;;;1.90;1.55;;;18.50;49.70;;;;;;5015531;28;20486;-72
2022/04/24 12:07:12;;;;;;;3.28;1.98;;;19.40;50.20;;;;;;5015212;28;20057;-71
2022/04/24 12:09:40;;;;;;;2.65;1.85;;;19.30;51.80;;;;;;5048248;28;20053;-71
2022/04/24 12:12:08;;;;;;;1.70;1.60;;;20.30;52.20;;;;;;5035194;28;20063;-72
2022/04/24 12:14:35;;;;;;;3.15;1.55;;;19.40;50.30;;;;;;5052896;28;20432;-72
2022/04/24 12:17:03;;;;;;;3.95;1.83;;;19.10;50.20;;;;;;5052962;28;20063;-72
2022/04/24 12:19:29;;;;;;;2.90;1.80;;;19.30;50.10;;;;;;5035230;28;20087;-72
2022/04/24 12:21:56;;;;;;;3.88;1.73;;;19.20;45.70;;;;;;5035472;28;20383;-72
2022/04/24 12:24:23;;;;;;;2.47;1.63;;;19.20;50.20;;;;;;5030384;28;20053;-72
2022/04/24 12:26:52;;;;;;;2.15;1.55;;;19.20;45.70;;;;;;5015412;28;20483;-72
2022/04/24 12:29:19;;;;;;;1.98;1.67;;;19.10;51.70;;;;;;5015348;28;20064;-72
2022/04/24 12:31:46;;;;;;;2.95;1.80;;;19.20;45.80;;;;;;5032719;28;20136;-72
2022/04/24 12:34:13;;;;;;;2.10;1.70;;;19.20;50.90;;;;;;5032705;28;20041;-72
2022/04/24 12:36:47;;;;;;;2.72;1.98;;;19.20;45.20;;;;;;5015053;28;20517;-72
2022/04/24 12:39:14;;;;;;;2.22;1.70;;;19.20;45.60;;;;;;5015253;28;20053;-72
2022/04/24 12:41:41;;;;;;;3.00;1.90;;;19.20;50.20;;;;;;5033450;28;20054;-72
2022/04/24 12:44:09;;;;;;;3.15;1.95;;;19.20;52.10;;;;;;5014603;28;20417;-72
2022/04/24 12:46:36;;;;;;;1.98;1.50;;;19.20;52.50;;;;;;5015150;28;20059;-71
2022/04/24 12:49:03;;;;;;;2.10;1.60;;;19.40;50.70;;;;;;5014907;28;20147;-71
2022/04/24 12:51:30;;;;;;;2.13;1.50;;;19.20;52.30;;;;;;5032376;28;20050;-71
2022/04/24 12:53:57;;;;;;;2.90;1.70;;;18.20;49.90;;;;;;5032359;28;20505;-71
2022/04/24 12:56:24;;;;;;;2.38;1.63;;;19.20;49.80;;;;;;5014666;28;20065;-71
2022/04/24 12:58:51;;;;;;;2.80;2.17;;;19.20;45.70;;;;;;5031027;28;20416;-71
2022/04/24 13:01:21;;;;;;;3.78;1.50;;;19.30;51.20;;;;;;5052023;28;20063;-71